createdAt,value
2017-06-29T00:01:05.068Z,83.78
2017-06-29T00:03:34.191Z,83.64
2017-06-29T00:06:03.360Z,83.65
2017-06-29T00:08:32.427Z,83.74
2017-06-29T00:11:02.334Z,83.83
2017-06-29T00:13:31.415Z,83.70
2017-06-29T00:16:01.176Z,83.72
2017-06-29T00:18:30.232Z,83.75
2017-06-29T00:21:00.057Z,83.75
2017-06-29T00:23:29.108Z,83.63
2017-06-29T00:25:58.197Z,83.62
2017-06-29T00:28:27.236Z,83.64
2017-06-29T00:30:57.080Z,83.68
2017-06-29T00:33:26.143Z,83.71
2017-06-29T00:35:55.961Z,83.79
2017-06-29T00:38:25.815Z,83.68
2017-06-29T00:40:54.862Z,83.61
2017-06-29T00:43:23.881Z,83.58
2017-06-29T00:45:52.957Z,83.57
2017-06-29T00:48:22.760Z,83.57
2017-06-29T00:50:52.991Z,83.82
2017-06-29T00:53:22.005Z,83.83
2017-06-29T00:55:51.056Z,83.78
2017-06-29T00:58:20.108Z,83.74
2017-06-29T01:00:49.159Z,83.99
2017-06-29T01:03:18.235Z,83.92
2017-06-29T01:05:47.267Z,83.96
2017-06-29T01:08:16.433Z,84.16
2017-06-29T01:10:45.471Z,84.06
2017-06-29T01:13:14.556Z,84.19
2017-06-29T01:15:43.614Z,84.13
2017-06-29T01:18:12.663Z,84.03
2017-06-29T01:20:41.702Z,83.95
2017-06-29T01:23:11.029Z,84.03
2017-06-29T01:25:40.072Z,84.00
2017-06-29T01:28:09.162Z,83.92
2017-06-29T01:30:38.229Z,83.96
2017-06-29T01:33:07.319Z,83.96
2017-06-29T01:35:36.404Z,84.08
2017-06-29T01:38:05.507Z,84.05
2017-06-29T01:40:34.541Z,84.07
2017-06-29T01:43:03.616Z,84.08
2017-06-29T01:45:32.655Z,83.91
2017-06-29T01:48:01.724Z,83.82
2017-06-29T01:50:30.823Z,83.87
2017-06-29T01:53:00.815Z,83.85
2017-06-29T01:55:29.874Z,83.94
2017-06-29T01:57:58.939Z,83.97
2017-06-29T02:00:28.012Z,84.13
2017-06-29T02:02:57.143Z,84.26
2017-06-29T02:05:26.205Z,84.15
2017-06-29T02:07:55.288Z,84.20
2017-06-29T02:10:24.369Z,84.36
2017-06-29T02:12:53.412Z,84.34
2017-06-29T02:15:22.535Z,84.47
2017-06-29T02:17:51.592Z,84.37
2017-06-29T02:20:20.642Z,84.25
2017-06-29T02:22:49.717Z,83.97
2017-06-29T02:25:18.755Z,84.11
2017-06-29T02:27:48.011Z,84.12
2017-06-29T02:30:17.101Z,84.29
2017-06-29T02:32:46.164Z,84.30
2017-06-29T02:35:15.274Z,84.53
2017-06-29T02:37:44.315Z,84.52
2017-06-29T02:40:13.407Z,84.52
2017-06-29T02:42:42.420Z,84.65
2017-06-29T02:45:11.515Z,84.52
2017-06-29T02:47:40.572Z,84.74
2017-06-29T02:50:09.947Z,84.74
2017-06-29T02:52:38.961Z,84.64
2017-06-29T02:55:08.036Z,84.73
2017-06-29T02:57:37.126Z,84.57
2017-06-29T03:00:06.193Z,84.71
2017-06-29T03:02:35.242Z,84.75
2017-06-29T03:05:04.604Z,84.69
2017-06-29T03:07:33.673Z,84.67
2017-06-29T03:10:02.734Z,84.88
2017-06-29T03:12:31.952Z,84.95
2017-06-29T03:15:01.001Z,84.97
2017-06-29T03:17:30.053Z,84.75
2017-06-29T03:19:59.129Z,84.72
2017-06-29T03:22:28.231Z,84.62
2017-06-29T03:24:57.308Z,84.66
2017-06-29T03:27:26.392Z,84.46
2017-06-29T03:29:55.469Z,84.44
2017-06-29T03:32:24.542Z,84.31
2017-06-29T03:34:53.595Z,84.17
2017-06-29T03:37:22.651Z,84.03
2017-06-29T03:39:51.736Z,83.96
2017-06-29T03:42:20.807Z,83.79
2017-06-29T03:44:49.853Z,83.45
2017-06-29T03:47:19.280Z,83.55
2017-06-29T03:49:48.331Z,83.35
2017-06-29T03:52:17.412Z,83.22
2017-06-29T03:54:46.497Z,83.31
2017-06-29T03:57:15.557Z,83.23
2017-06-29T03:59:44.645Z,83.12
2017-06-29T04:02:13.793Z,83.02
2017-06-29T04:04:42.862Z,83.11
2017-06-29T04:07:11.953Z,83.01
2017-06-29T04:09:40.981Z,83.00
2017-06-29T04:12:10.073Z,82.79
2017-06-29T04:14:39.125Z,82.58
2017-06-29T04:17:08.167Z,82.60
2017-06-29T04:19:37.239Z,82.49
2017-06-29T04:22:06.306Z,82.44
2017-06-29T04:24:35.397Z,82.20
2017-06-29T04:27:04.432Z,82.41
2017-06-29T04:29:33.479Z,82.14
2017-06-29T04:32:02.576Z,82.01
2017-06-29T04:34:31.611Z,82.03
2017-06-29T04:37:00.670Z,81.82
2017-06-29T04:39:29.753Z,81.59
2017-06-29T04:41:58.841Z,81.52
2017-06-29T04:44:28.072Z,81.50
2017-06-29T04:46:57.136Z,81.53
2017-06-29T04:49:26.380Z,81.59
2017-06-29T04:51:55.407Z,81.54
2017-06-29T04:54:24.473Z,81.28
2017-06-29T04:56:53.539Z,81.29
2017-06-29T04:59:22.733Z,81.20
2017-06-29T05:01:51.781Z,81.03
2017-06-29T05:04:20.841Z,80.91
2017-06-29T05:06:49.944Z,81.15
2017-06-29T05:09:19.204Z,80.92
2017-06-29T05:11:48.480Z,80.71
2017-06-29T05:14:17.568Z,80.37
2017-06-29T05:16:46.637Z,80.15
2017-06-29T05:19:15.709Z,79.47
2017-06-29T05:21:44.773Z,79.58
2017-06-29T05:24:13.819Z,79.45
2017-06-29T05:26:42.863Z,79.40
2017-06-29T05:29:11.933Z,79.33
2017-06-29T05:31:40.980Z,79.16
2017-06-29T05:34:10.049Z,78.91
2017-06-29T05:36:39.115Z,78.91
2017-06-29T05:39:08.178Z,78.92
2017-06-29T05:41:37.247Z,78.83
2017-06-29T05:44:06.339Z,78.83
2017-06-29T05:46:35.417Z,78.21
2017-06-29T05:49:04.534Z,77.48
2017-06-29T05:51:33.839Z,77.59
2017-06-29T05:54:02.995Z,77.43
2017-06-29T05:56:32.053Z,76.81
2017-06-29T05:59:01.145Z,77.55
2017-06-29T06:01:30.224Z,77.19
2017-06-29T06:03:59.299Z,76.53
2017-06-29T06:06:29.247Z,76.33
2017-06-29T06:08:58.541Z,76.70
2017-06-29T06:11:27.593Z,76.38
2017-06-29T06:13:56.639Z,76.37
2017-06-29T06:16:25.698Z,76.92
2017-06-29T06:18:54.803Z,76.61
2017-06-29T06:21:24.093Z,76.26
2017-06-29T06:23:53.148Z,76.52
2017-06-29T06:26:22.201Z,76.77
2017-06-29T06:28:51.327Z,76.80
2017-06-29T06:31:20.383Z,77.47
2017-06-29T06:33:49.485Z,76.52
2017-06-29T06:36:18.504Z,75.97
2017-06-29T06:38:47.599Z,76.52
2017-06-29T06:41:16.659Z,76.31
2017-06-29T06:43:45.733Z,76.31
2017-06-29T06:46:15.118Z,76.29
2017-06-29T06:48:44.188Z,75.17
2017-06-29T06:51:13.283Z,75.36
2017-06-29T06:53:42.345Z,75.44
2017-06-29T06:56:11.695Z,74.95
2017-06-29T06:58:40.757Z,74.89
2017-06-29T07:01:09.889Z,73.51
2017-06-29T07:03:38.942Z,74.15
2017-06-29T07:06:08.072Z,73.93
2017-06-29T07:08:37.116Z,73.60
2017-06-29T07:11:06.511Z,74.31
2017-06-29T07:13:35.544Z,74.27
2017-06-29T07:16:04.874Z,74.31
2017-06-29T07:18:33.924Z,73.98
2017-06-29T07:21:03.016Z,73.91
2017-06-29T07:23:32.318Z,74.05
2017-06-29T07:26:01.383Z,73.83
2017-06-29T07:28:30.649Z,73.89
2017-06-29T07:30:59.699Z,74.19
2017-06-29T07:33:28.757Z,74.57
2017-06-29T07:35:57.920Z,73.99
2017-06-29T07:38:27.204Z,73.91
2017-06-29T07:40:56.276Z,74.27
2017-06-29T07:43:25.583Z,74.71
2017-06-29T07:45:54.627Z,74.68
2017-06-29T07:48:23.700Z,75.25
2017-06-29T07:50:52.759Z,76.00
2017-06-29T07:53:21.831Z,76.61
2017-06-29T07:55:50.901Z,76.71
2017-06-29T07:58:19.964Z,77.87
2017-06-29T08:00:49.060Z,77.70
2017-06-29T08:03:18.119Z,79.74
2017-06-29T08:05:47.397Z,79.73
2017-06-29T08:08:16.493Z,80.79
2017-06-29T08:10:45.540Z,80.69
2017-06-29T08:13:14.603Z,80.26
2017-06-29T08:15:43.672Z,80.29
2017-06-29T08:18:12.751Z,80.33
2017-06-29T08:20:41.833Z,81.10
2017-06-29T08:23:10.907Z,80.18
2017-06-29T08:25:39.979Z,81.84
2017-06-29T08:28:09.125Z,80.80
2017-06-29T08:30:38.188Z,80.44
2017-06-29T08:33:07.820Z,80.48
2017-06-29T08:35:36.914Z,80.74
2017-06-29T08:38:05.972Z,79.83
2017-06-29T08:40:35.304Z,78.06
2017-06-29T08:43:04.339Z,77.99
2017-06-29T08:45:33.431Z,77.66
2017-06-29T08:48:02.472Z,78.59
2017-06-29T08:50:31.507Z,75.91
2017-06-29T08:53:00.581Z,77.01
2017-06-29T08:55:29.641Z,77.16
2017-06-29T08:57:58.684Z,77.16
2017-06-29T09:00:27.970Z,78.00
2017-06-29T09:02:57.024Z,76.66
2017-06-29T09:05:26.096Z,76.91
2017-06-29T09:07:55.178Z,77.28
2017-06-29T09:10:24.302Z,75.83
2017-06-29T09:12:53.576Z,77.24
2017-06-29T09:15:24.094Z,77.41
2017-06-29T09:17:53.117Z,77.89
2017-06-29T09:20:22.235Z,73.51
2017-06-29T09:22:51.491Z,74.84
2017-06-29T09:25:20.800Z,74.46
2017-06-29T09:27:49.865Z,75.39
2017-06-29T09:30:19.012Z,75.98
2017-06-29T09:32:48.075Z,75.47
2017-06-29T09:35:17.149Z,76.21
2017-06-29T09:37:46.232Z,74.79
2017-06-29T09:40:15.535Z,74.50
2017-06-29T09:42:44.616Z,74.50
2017-06-29T09:45:13.679Z,74.82
2017-06-29T09:47:42.816Z,74.34
2017-06-29T09:50:11.922Z,73.69
2017-06-29T09:52:40.953Z,73.98
2017-06-29T09:55:10.057Z,73.71
2017-06-29T09:57:39.148Z,74.61
2017-06-29T10:00:08.211Z,74.67
2017-06-29T10:02:37.279Z,72.70
2017-06-29T10:05:06.369Z,73.88
2017-06-29T10:07:35.667Z,72.84
2017-06-29T10:10:04.786Z,71.63
2017-06-29T10:12:33.794Z,71.94
2017-06-29T10:15:02.860Z,71.56
2017-06-29T10:17:31.967Z,70.60
2017-06-29T10:20:01.032Z,71.43
2017-06-29T10:22:30.129Z,70.26
2017-06-29T10:24:59.190Z,69.72
2017-06-29T10:27:28.272Z,70.15
2017-06-29T10:29:57.339Z,70.73
2017-06-29T10:32:26.413Z,70.03
2017-06-29T10:34:55.452Z,70.16
2017-06-29T10:37:24.493Z,70.29
2017-06-29T10:39:53.593Z,69.61
2017-06-29T10:42:22.646Z,70.68
2017-06-29T10:44:51.710Z,69.50
2017-06-29T10:47:20.758Z,70.91
2017-06-29T10:49:49.830Z,68.42
2017-06-29T10:52:18.932Z,67.88
2017-06-29T10:54:47.978Z,65.41
2017-06-29T10:57:17.201Z,64.91
2017-06-29T10:59:46.262Z,64.15
2017-06-29T11:02:15.309Z,64.39
2017-06-29T11:04:44.406Z,64.27
2017-06-29T11:07:13.471Z,63.16
2017-06-29T11:09:42.522Z,63.06
2017-06-29T11:12:11.609Z,63.21
2017-06-29T11:14:40.674Z,62.21
2017-06-29T11:17:09.724Z,61.88
2017-06-29T11:19:38.845Z,62.06
2017-06-29T11:22:07.971Z,62.29
2017-06-29T11:24:37.021Z,63.18
2017-06-29T11:27:06.104Z,61.88
2017-06-29T11:29:35.159Z,63.55
2017-06-29T11:32:04.238Z,64.45
2017-06-29T11:34:33.314Z,63.95
2017-06-29T11:37:02.389Z,64.33
2017-06-29T11:39:31.459Z,64.51
2017-06-29T11:42:00.515Z,62.74
2017-06-29T11:44:29.584Z,63.56
2017-06-29T11:46:58.841Z,63.60
2017-06-29T11:49:27.973Z,64.64
2017-06-29T11:51:56.999Z,63.56
2017-06-29T11:54:26.353Z,64.62
2017-06-29T11:56:55.430Z,63.58
2017-06-29T11:59:24.448Z,62.22
2017-06-29T12:01:53.528Z,60.84
2017-06-29T12:04:22.581Z,61.25
2017-06-29T12:06:51.628Z,60.35
2017-06-29T12:09:21.567Z,60.09
2017-06-29T12:11:50.629Z,61.17
2017-06-29T12:14:19.721Z,61.55
2017-06-29T12:16:48.754Z,61.17
2017-06-29T12:19:17.840Z,62.33
2017-06-29T12:21:46.904Z,61.49
2017-06-29T12:24:15.973Z,61.98
2017-06-29T12:26:45.028Z,60.82
2017-06-29T12:29:14.097Z,59.73
2017-06-29T12:31:43.303Z,59.02
2017-06-29T12:34:12.379Z,58.42
2017-06-29T12:36:41.446Z,58.99
2017-06-29T12:39:10.506Z,58.67
2017-06-29T12:41:39.538Z,58.22
2017-06-29T12:44:08.845Z,58.13
2017-06-29T12:46:38.138Z,57.85
2017-06-29T12:49:07.244Z,56.89
2017-06-29T12:51:36.283Z,58.39
2017-06-29T12:54:05.334Z,57.75
2017-06-29T12:56:34.381Z,59.79
2017-06-29T12:59:03.473Z,58.03
2017-06-29T13:01:32.540Z,57.72
2017-06-29T13:04:02.575Z,56.68
2017-06-29T13:06:31.633Z,57.57
2017-06-29T13:09:00.704Z,56.67
2017-06-29T13:11:29.764Z,56.43
2017-06-29T13:13:58.844Z,57.28
2017-06-29T13:16:27.921Z,57.45
2017-06-29T13:18:56.971Z,58.12
2017-06-29T13:21:26.059Z,58.18
2017-06-29T13:23:55.082Z,57.38
2017-06-29T13:26:24.148Z,57.38
2017-06-29T13:28:53.198Z,58.12
2017-06-29T13:31:22.285Z,57.56
2017-06-29T13:33:51.402Z,58.20
2017-06-29T13:36:20.462Z,57.22
2017-06-29T13:38:49.492Z,56.42
2017-06-29T13:41:18.593Z,56.00
2017-06-29T13:43:47.636Z,55.99
2017-06-29T13:46:16.690Z,57.24
2017-06-29T13:48:45.754Z,55.92
2017-06-29T13:51:14.795Z,56.82
2017-06-29T13:53:43.866Z,56.14
2017-06-29T13:56:12.945Z,56.76
2017-06-29T13:58:42.013Z,57.22
2017-06-29T14:01:11.141Z,57.17
2017-06-29T14:03:40.272Z,58.09
2017-06-29T14:06:09.374Z,57.03
2017-06-29T14:08:38.416Z,57.89
2017-06-29T14:11:07.507Z,57.06
2017-06-29T14:13:36.561Z,57.64
2017-06-29T14:16:05.677Z,57.65
2017-06-29T14:18:34.727Z,57.43
2017-06-29T14:21:03.795Z,57.26
2017-06-29T14:23:32.906Z,57.96
2017-06-29T14:26:01.954Z,57.68
2017-06-29T14:28:31.071Z,57.66
2017-06-29T14:31:00.135Z,57.17
2017-06-29T14:33:29.207Z,56.74
2017-06-29T14:35:58.295Z,56.36
2017-06-29T14:38:27.648Z,56.34
2017-06-29T14:40:56.727Z,56.11
2017-06-29T14:43:26.016Z,57.25
2017-06-29T14:45:55.089Z,55.66
2017-06-29T14:48:24.345Z,57.47
2017-06-29T14:50:53.456Z,56.57
2017-06-29T14:53:22.540Z,56.03
2017-06-29T14:55:51.645Z,57.05
2017-06-29T14:58:20.740Z,57.47
2017-06-29T15:00:49.844Z,56.48
2017-06-29T15:03:18.872Z,56.55
2017-06-29T15:05:47.957Z,57.25
2017-06-29T15:08:17.058Z,56.02
2017-06-29T15:10:46.124Z,56.68
2017-06-29T15:13:15.169Z,57.36
2017-06-29T15:15:44.289Z,57.14
2017-06-29T15:18:13.356Z,56.90
2017-06-29T15:20:42.421Z,56.27
2017-06-29T15:23:11.518Z,55.69
2017-06-29T15:25:40.615Z,56.16
2017-06-29T15:28:09.764Z,55.63
2017-06-29T15:30:38.840Z,54.69
2017-06-29T15:33:07.893Z,55.21
2017-06-29T15:35:36.949Z,55.95
2017-06-29T15:38:06.003Z,56.89
2017-06-29T15:40:35.113Z,56.46
2017-06-29T15:43:04.200Z,55.14
2017-06-29T15:45:33.304Z,55.71
2017-06-29T15:48:02.455Z,54.94
2017-06-29T15:50:31.532Z,54.48
2017-06-29T15:53:00.591Z,54.52
2017-06-29T15:55:29.691Z,55.34
2017-06-29T15:57:58.767Z,55.13
2017-06-29T16:00:27.823Z,55.02
2017-06-29T16:02:56.972Z,53.79
2017-06-29T16:05:26.915Z,54.41
2017-06-29T16:07:55.976Z,53.97
2017-06-29T16:10:25.085Z,54.77
2017-06-29T16:12:54.163Z,54.91
2017-06-29T16:15:23.249Z,53.80
2017-06-29T16:17:52.427Z,54.54
2017-06-29T16:20:21.503Z,54.05
2017-06-29T16:22:50.585Z,54.19
2017-06-29T16:25:19.624Z,54.32
2017-06-29T16:27:48.942Z,55.58
2017-06-29T16:30:18.041Z,55.64
2017-06-29T16:32:47.174Z,55.96
2017-06-29T16:35:16.241Z,56.23
2017-06-29T16:37:45.320Z,56.26
2017-06-29T16:40:14.403Z,56.54
2017-06-29T16:42:43.500Z,56.48
2017-06-29T16:45:12.542Z,56.93
2017-06-29T16:47:41.614Z,56.76
2017-06-29T16:50:11.449Z,56.93
2017-06-29T16:52:40.510Z,57.08
2017-06-29T16:55:09.571Z,56.94
2017-06-29T16:57:38.704Z,56.78
2017-06-29T17:00:07.783Z,57.00
2017-06-29T17:02:36.823Z,56.70
2017-06-29T17:05:05.905Z,57.42
2017-06-29T17:07:34.982Z,57.38
2017-06-29T17:10:04.405Z,57.56
2017-06-29T17:12:33.677Z,58.17
2017-06-29T17:15:02.733Z,58.43
2017-06-29T17:17:31.811Z,58.19
2017-06-29T17:20:00.872Z,58.45
2017-06-29T17:22:29.913Z,58.73
2017-06-29T17:24:59.014Z,58.96
2017-06-29T17:27:28.861Z,57.70
2017-06-29T17:29:57.898Z,58.39
2017-06-29T17:32:27.167Z,58.18
2017-06-29T17:34:56.214Z,58.09
2017-06-29T17:37:26.039Z,58.53
2017-06-29T17:39:55.120Z,58.55
2017-06-29T17:42:24.164Z,58.38
2017-06-29T17:44:53.289Z,57.83
2017-06-29T17:47:22.331Z,57.81
2017-06-29T17:49:51.448Z,58.04
2017-06-29T17:52:20.505Z,58.46
2017-06-29T17:54:49.558Z,58.43
2017-06-29T17:57:18.632Z,58.12
2017-06-29T17:59:47.688Z,58.35
2017-06-29T18:02:17.542Z,58.01
2017-06-29T18:04:46.589Z,58.04
2017-06-29T18:07:16.734Z,57.95
2017-06-29T18:09:45.776Z,58.56
2017-06-29T18:12:14.989Z,58.24
2017-06-29T18:14:44.197Z,58.54
2017-06-29T18:17:13.271Z,58.89
2017-06-29T18:19:42.675Z,58.63
2017-06-29T18:22:12.126Z,58.56
2017-06-29T18:24:41.997Z,59.20
2017-06-29T18:27:11.293Z,59.50
2017-06-29T18:29:40.390Z,59.42
2017-06-29T18:32:09.718Z,60.43
2017-06-29T18:34:38.853Z,61.05
2017-06-29T18:37:07.981Z,60.83
2017-06-29T18:39:37.061Z,61.03
2017-06-29T18:42:06.144Z,61.18
2017-06-29T18:44:35.686Z,60.17
2017-06-29T18:47:04.739Z,60.62
2017-06-29T18:49:33.814Z,60.43
2017-06-29T18:52:02.921Z,60.10
2017-06-29T18:54:31.983Z,60.48
2017-06-29T18:57:01.039Z,60.35
2017-06-29T18:59:30.116Z,60.42
2017-06-29T19:01:59.177Z,59.70
2017-06-29T19:04:28.272Z,60.29
2017-06-29T19:06:57.341Z,59.42
2017-06-29T19:09:27.179Z,59.66
2017-06-29T19:11:56.306Z,59.85
2017-06-29T19:14:25.863Z,60.33
2017-06-29T19:16:55.711Z,59.90
2017-06-29T19:19:24.811Z,60.10
2017-06-29T19:21:53.854Z,60.68
2017-06-29T19:24:22.940Z,60.90
2017-06-29T19:26:51.985Z,59.59
2017-06-29T19:29:21.052Z,59.96
2017-06-29T19:31:50.134Z,59.71
2017-06-29T19:34:19.229Z,59.62
2017-06-29T19:36:48.324Z,59.68
2017-06-29T19:39:17.397Z,59.77
2017-06-29T19:41:46.459Z,60.16
2017-06-29T19:44:15.585Z,59.96
2017-06-29T19:46:44.706Z,59.89
2017-06-29T19:49:13.775Z,60.37
2017-06-29T19:51:42.816Z,60.11
2017-06-29T19:54:12.678Z,59.89
2017-06-29T19:56:41.745Z,59.84
2017-06-29T19:59:10.911Z,60.12
2017-06-29T20:01:39.944Z,60.19
2017-06-29T20:04:09.069Z,60.58
2017-06-29T20:06:38.126Z,61.31
2017-06-29T20:09:08.500Z,61.80
2017-06-29T20:11:37.583Z,62.12
2017-06-29T20:14:06.915Z,62.83
2017-06-29T20:16:35.984Z,63.32
2017-06-29T20:19:05.092Z,63.88
2017-06-29T20:21:34.158Z,63.86
2017-06-29T20:24:03.215Z,64.78
2017-06-29T20:26:32.324Z,64.79
2017-06-29T20:29:01.377Z,65.03
2017-06-29T20:31:30.419Z,65.21
2017-06-29T20:33:59.731Z,65.42
2017-06-29T20:36:28.783Z,65.56
2017-06-29T20:38:58.604Z,65.87
2017-06-29T20:41:29.420Z,66.52
2017-06-29T20:43:58.440Z,66.54
2017-06-29T20:46:27.534Z,66.84
2017-06-29T20:48:56.676Z,67.22
2017-06-29T20:51:25.722Z,67.39
2017-06-29T20:53:54.824Z,67.65
2017-06-29T20:56:23.905Z,67.83
2017-06-29T20:58:53.740Z,68.23
2017-06-29T21:01:22.803Z,68.46
2017-06-29T21:03:51.897Z,68.69
2017-06-29T21:06:20.956Z,68.98
2017-06-29T21:08:50.045Z,69.24
2017-06-29T21:11:19.085Z,69.35
2017-06-29T21:13:49.292Z,69.60
2017-06-29T21:16:18.339Z,69.79
2017-06-29T21:18:47.436Z,70.14
2017-06-29T21:21:16.531Z,70.77
2017-06-29T21:23:45.576Z,70.81
2017-06-29T21:26:14.700Z,71.12
2017-06-29T21:28:43.750Z,71.51
2017-06-29T21:31:12.829Z,71.82
2017-06-29T21:33:41.874Z,71.90
2017-06-29T21:36:10.996Z,72.00
2017-06-29T21:38:40.036Z,72.17
2017-06-29T21:41:09.118Z,72.35
2017-06-29T21:43:38.198Z,72.76
2017-06-29T21:46:07.324Z,73.13
2017-06-29T21:48:36.413Z,73.18
2017-06-29T21:51:05.839Z,73.07
2017-06-29T21:53:34.887Z,73.42
2017-06-29T21:56:03.992Z,73.28
2017-06-29T21:58:33.074Z,73.33
2017-06-29T22:01:02.145Z,73.36
2017-06-29T22:03:31.491Z,73.37
2017-06-29T22:06:00.528Z,73.43
2017-06-29T22:08:29.602Z,73.24
2017-06-29T22:10:58.656Z,73.37
2017-06-29T22:13:27.739Z,73.33
2017-06-29T22:15:56.815Z,73.20
2017-06-29T22:18:25.885Z,73.37
2017-06-29T22:20:54.979Z,73.27
2017-06-29T22:23:24.034Z,73.39
2017-06-29T22:25:53.115Z,73.28
2017-06-29T22:28:22.155Z,73.33
2017-06-29T22:30:51.284Z,73.42
2017-06-29T22:33:20.360Z,73.34
2017-06-29T22:35:49.407Z,73.37
2017-06-29T22:38:18.471Z,73.56
2017-06-29T22:40:48.302Z,73.50
2017-06-29T22:43:17.328Z,73.63
2017-06-29T22:45:46.419Z,73.69
2017-06-29T22:48:15.506Z,73.74
2017-06-29T22:50:44.708Z,73.68
2017-06-29T22:53:13.771Z,73.87
2017-06-29T22:55:42.903Z,73.77
2017-06-29T22:58:12.017Z,73.78
2017-06-29T23:00:43.884Z,73.90
2017-06-29T23:03:12.983Z,74.23
2017-06-29T23:05:42.033Z,74.48
2017-06-29T23:08:11.107Z,74.51
2017-06-29T23:10:40.547Z,74.54
2017-06-29T23:13:09.649Z,74.46
2017-06-29T23:15:38.700Z,74.54
2017-06-29T23:18:07.803Z,74.37
2017-06-29T23:20:36.832Z,74.25
2017-06-29T23:23:05.894Z,74.42
2017-06-29T23:25:34.971Z,74.22
2017-06-29T23:28:04.084Z,74.26
2017-06-29T23:30:33.177Z,74.43
2017-06-29T23:33:02.291Z,74.48
2017-06-29T23:35:31.363Z,74.38
2017-06-29T23:38:00.448Z,74.62
2017-06-29T23:40:29.543Z,74.87
2017-06-29T23:42:59.377Z,74.79
2017-06-29T23:45:28.453Z,74.93
2017-06-29T23:47:57.499Z,74.88
2017-06-29T23:50:26.915Z,75.07
2017-06-29T23:52:55.988Z,75.25
2017-06-29T23:55:25.060Z,75.17
2017-06-29T23:57:54.153Z,75.33
